Aetna, Tennessee
Current Conditions -  °F | °C
As of 6:35 PM on Monday 24 Nov 2014 (Local Time) from KPVE Reporting Station
Clear Clear  
Wind Chill: 46°   Ceiling: Unl
Heat Index: 46°   Visibility: 10mi
Dew Point: 28°   Wind: 3mph
Humidity: 50%   Direction: 240°WSW
Pressure: 29.96"   Gusts: NA
Location:  35.7514°N, 87.5392°W
Report Text: KPVE 250035Z AUTO 24003KT 10SM CLR 08/M02 A2996 RMK
Loading
Personal Weather Stations






























Interactive Weather Map New forecast layout! Learn more

10-Day Weather Forecast

Advertisements
Track Severe Weather on mobile